sensor_id;sensor_type;location;lat;lon;timestamp;P1;durP1;ratioP1;P2;durP2;ratioP2
42332;SDS011;27984;51.476;5.702;2023-06-14T00:32:28;9.70;;;6.10;;
42332;SDS011;27984;51.476;5.702;2023-06-14T00:34:54;8.32;;;5.88;;
42332;SDS011;27984;51.476;5.702;2023-06-14T00:37:20;8.45;;;5.93;;
42332;SDS011;27984;51.476;5.702;2023-06-14T00:39:52;9.20;;;6.00;;
42332;SDS011;27984;51.476;5.702;2023-06-14T00:42:25;10.48;;;5.95;;
42332;SDS011;27984;51.476;5.702;2023-06-14T00:44:51;9.63;;;5.47;;
42332;SDS011;27984;51.476;5.702;2023-06-14T00:47:17;9.15;;;6.35;;
42332;SDS011;27984;51.476;5.702;2023-06-14T00:49:45;12.30;;;5.95;;
42332;SDS011;27984;51.476;5.702;2023-06-14T00:52:11;5.88;;;5.28;;
42332;SDS011;27984;51.476;5.702;2023-06-14T00:54:37;11.60;;;5.65;;
42332;SDS011;27984;51.476;5.702;2023-06-14T00:57:05;7.10;;;5.45;;
42332;SDS011;27984;51.476;5.702;2023-06-14T00:59:32;8.10;;;5.72;;
42332;SDS011;27984;51.476;5.702;2023-06-14T01:01:58;8.05;;;5.97;;
42332;SDS011;27984;51.476;5.702;2023-06-14T01:04:24;12.70;;;6.00;;
42332;SDS011;27984;51.476;5.702;2023-06-14T01:06:54;8.07;;;6.28;;
42332;SDS011;27984;51.476;5.702;2023-06-14T01:09:52;7.70;;;5.88;;
42332;SDS011;27984;51.476;5.702;2023-06-14T01:15:22;8.57;;;6.15;;
42332;SDS011;27984;51.476;5.702;2023-06-14T01:17:54;13.77;;;6.32;;
42332;SDS011;27984;51.476;5.702;2023-06-14T01:20:22;9.38;;;5.85;;
42332;SDS011;27984;51.476;5.702;2023-06-14T01:22:55;11.60;;;5.60;;
42332;SDS011;27984;51.476;5.702;2023-06-14T01:25:22;8.13;;;5.90;;
42332;SDS011;27984;51.476;5.702;2023-06-14T01:27:49;8.38;;;5.20;;
42332;SDS011;27984;51.476;5.702;2023-06-14T01:30:15;8.77;;;5.53;;
42332;SDS011;27984;51.476;5.702;2023-06-14T01:32:47;5.80;;;5.15;;
42332;SDS011;27984;51.476;5.702;2023-06-14T01:35:22;9.27;;;5.45;;
42332;SDS011;27984;51.476;5.702;2023-06-14T01:37:50;7.75;;;5.35;;
42332;SDS011;27984;51.476;5.702;2023-06-14T01:40:18;6.78;;;5.35;;
42332;SDS011;27984;51.476;5.702;2023-06-14T01:42:46;9.65;;;5.30;;
42332;SDS011;27984;51.476;5.702;2023-06-14T01:45:12;8.38;;;5.32;;
42332;SDS011;27984;51.476;5.702;2023-06-14T01:47:38;7.15;;;5.10;;
42332;SDS011;27984;51.476;5.702;2023-06-14T01:50:04;8.88;;;5.60;;
42332;SDS011;27984;51.476;5.702;2023-06-14T01:52:30;9.13;;;5.95;;
42332;SDS011;27984;51.476;5.702;2023-06-14T01:54:56;6.25;;;5.00;;
42332;SDS011;27984;51.476;5.702;2023-06-14T01:57:28;6.03;;;5.10;;
42332;SDS011;27984;51.476;5.702;2023-06-14T01:59:54;6.97;;;5.32;;
42332;SDS011;27984;51.476;5.702;2023-06-14T02:02:20;6.25;;;4.90;;
42332;SDS011;27984;51.476;5.702;2023-06-14T02:04:46;8.20;;;5.18;;
42332;SDS011;27984;51.476;5.702;2023-06-14T02:07:12;6.25;;;4.80;;
42332;SDS011;27984;51.476;5.702;2023-06-14T02:09:39;10.93;;;5.20;;
42332;SDS011;27984;51.476;5.702;2023-06-14T02:12:05;9.63;;;5.20;;
42332;SDS011;27984;51.476;5.702;2023-06-14T02:14:31;5.80;;;4.90;;
42332;SDS011;27984;51.476;5.702;2023-06-14T02:16:57;9.00;;;5.00;;
42332;SDS011;27984;51.476;5.702;2023-06-14T02:19:23;7.47;;;4.97;;
42332;SDS011;27984;51.476;5.702;2023-06-14T02:21:50;8.05;;;5.15;;
42332;SDS011;27984;51.476;5.702;2023-06-14T02:24:16;7.90;;;5.05;;
42332;SDS011;27984;51.476;5.702;2023-06-14T02:26:42;7.65;;;5.05;;
42332;SDS011;27984;51.476;5.702;2023-06-14T02:29:08;7.97;;;5.05;;
42332;SDS011;27984;51.476;5.702;2023-06-14T02:31:36;10.43;;;5.30;;
42332;SDS011;27984;51.476;5.702;2023-06-14T02:34:02;8.43;;;4.95;;
42332;SDS011;27984;51.476;5.702;2023-06-14T02:36:28;8.43;;;5.10;;
42332;SDS011;27984;51.476;5.702;2023-06-14T02:38:55;9.77;;;4.65;;
42332;SDS011;27984;51.476;5.702;2023-06-14T02:41:22;6.65;;;4.60;;
42332;SDS011;27984;51.476;5.702;2023-06-14T02:43:48;8.73;;;4.78;;
42332;SDS011;27984;51.476;5.702;2023-06-14T02:46:14;7.95;;;4.70;;
42332;SDS011;27984;51.476;5.702;2023-06-14T02:48:40;8.10;;;5.13;;
42332;SDS011;27984;51.476;5.702;2023-06-14T02:51:06;12.82;;;4.78;;
42332;SDS011;27984;51.476;5.702;2023-06-14T02:53:34;8.07;;;5.22;;
42332;SDS011;27984;51.476;5.702;2023-06-14T02:56:00;6.57;;;4.53;;
42332;SDS011;27984;51.476;5.702;2023-06-14T02:58:28;7.30;;;4.65;;
42332;SDS011;27984;51.476;5.702;2023-06-14T03:00:54;7.20;;;5.00;;
42332;SDS011;27984;51.476;5.702;2023-06-14T03:03:20;6.55;;;4.60;;
42332;SDS011;27984;51.476;5.702;2023-06-14T03:05:49;6.43;;;4.88;;
42332;SDS011;27984;51.476;5.702;2023-06-14T03:08:16;7.55;;;4.60;;
42332;SDS011;27984;51.476;5.702;2023-06-14T03:10:45;12.85;;;4.78;;
42332;SDS011;27984;51.476;5.702;2023-06-14T03:13:11;6.90;;;4.60;;
42332;SDS011;27984;51.476;5.702;2023-06-14T03:15:37;5.63;;;4.55;;
42332;SDS011;27984;51.476;5.702;2023-06-14T03:18:07;9.27;;;4.57;;
42332;SDS011;27984;51.476;5.702;2023-06-14T03:20:35;9.32;;;5.00;;
42332;SDS011;27984;51.476;5.702;2023-06-14T03:23:01;10.35;;;4.90;;
42332;SDS011;27984;51.476;5.702;2023-06-14T03:25:28;9.25;;;4.60;;
42332;SDS011;27984;51.476;5.702;2023-06-14T03:27:54;8.98;;;4.57;;
42332;SDS011;27984;51.476;5.702;2023-06-14T03:30:20;10.70;;;4.97;;
42332;SDS011;27984;51.476;5.702;2023-06-14T03:32:46;9.52;;;4.90;;
42332;SDS011;27984;51.476;5.702;2023-06-14T03:35:12;12.18;;;5.22;;
42332;SDS011;27984;51.476;5.702;2023-06-14T03:37:45;6.60;;;4.43;;
42332;SDS011;27984;51.476;5.702;2023-06-14T03:40:12;6.32;;;4.20;;
42332;SDS011;27984;51.476;5.702;2023-06-14T03:42:38;9.05;;;4.72;;
42332;SDS011;27984;51.476;5.702;2023-06-14T03:45:05;7.90;;;4.57;;
42332;SDS011;27984;51.476;5.702;2023-06-14T03:47:31;8.43;;;5.00;;
42332;SDS011;27984;51.476;5.702;2023-06-14T03:49:57;10.27;;;5.22;;
42332;SDS011;27984;51.476;5.702;2023-06-14T03:52:23;8.32;;;4.85;;
42332;SDS011;27984;51.476;5.702;2023-06-14T03:54:49;7.43;;;4.90;;
42332;SDS011;27984;51.476;5.702;2023-06-14T03:57:16;7.50;;;4.75;;
42332;SDS011;27984;51.476;5.702;2023-06-14T03:59:42;7.13;;;4.43;;
42332;SDS011;27984;51.476;5.702;2023-06-14T04:02:08;7.97;;;5.13;;
42332;SDS011;27984;51.476;5.702;2023-06-14T04:04:34;9.07;;;4.47;;
42332;SDS011;27984;51.476;5.702;2023-06-14T04:07:01;7.38;;;4.63;;
42332;SDS011;27984;51.476;5.702;2023-06-14T04:09:28;6.03;;;4.55;;
42332;SDS011;27984;51.476;5.702;2023-06-14T04:11:54;7.45;;;4.40;;
42332;SDS011;27984;51.476;5.702;2023-06-14T04:14:21;8.15;;;4.70;;
42332;SDS011;27984;51.476;5.702;2023-06-14T04:16:47;7.93;;;4.45;;
42332;SDS011;27984;51.476;5.702;2023-06-14T04:19:14;8.57;;;4.88;;
42332;SDS011;27984;51.476;5.702;2023-06-14T04:21:40;8.50;;;4.93;;
42332;SDS011;27984;51.476;5.702;2023-06-14T04:24:06;8.95;;;4.88;;
42332;SDS011;27984;51.476;5.702;2023-06-14T04:26:37;7.45;;;4.50;;
42332;SDS011;27984;51.476;5.702;2023-06-14T04:29:04;6.15;;;4.80;;
42332;SDS011;27984;51.476;5.702;2023-06-14T04:31:31;12.85;;;4.78;;
42332;SDS011;27984;51.476;5.702;2023-06-14T04:34:02;6.95;;;4.68;;
42332;SDS011;27984;51.476;5.702;2023-06-14T04:36:31;6.70;;;4.28;;
42332;SDS011;27984;51.476;5.702;2023-06-14T04:38:59;9.90;;;4.72;;
42332;SDS011;27984;51.476;5.702;2023-06-14T04:41:25;9.02;;;4.95;;
42332;SDS011;27984;51.476;5.702;2023-06-14T04:43:55;6.10;;;5.00;;
42332;SDS011;27984;51.476;5.702;2023-06-14T04:46:22;9.90;;;5.30;;
42332;SDS011;27984;51.476;5.702;2023-06-14T04:48:48;8.63;;;5.28;;
42332;SDS011;27984;51.476;5.702;2023-06-14T04:51:15;8.43;;;4.97;;
42332;SDS011;27984;51.476;5.702;2023-06-14T04:53:41;6.65;;;4.45;;
42332;SDS011;27984;51.476;5.702;2023-06-14T04:56:09;9.10;;;5.03;;
42332;SDS011;27984;51.476;5.702;2023-06-14T04:58:35;9.77;;;5.40;;
42332;SDS011;27984;51.476;5.702;2023-06-14T05:01:01;9.25;;;4.85;;
42332;SDS011;27984;51.476;5.702;2023-06-14T05:03:27;7.68;;;5.22;;
42332;SDS011;27984;51.476;5.702;2023-06-14T05:05:55;6.13;;;4.63;;
42332;SDS011;27984;51.476;5.702;2023-06-14T05:08:21;7.90;;;4.72;;
42332;SDS011;27984;51.476;5.702;2023-06-14T05:10:48;8.88;;;5.00;;
42332;SDS011;27984;51.476;5.702;2023-06-14T05:13:14;7.55;;;4.80;;
42332;SDS011;27984;51.476;5.702;2023-06-14T05:15:40;7.32;;;4.35;;
42332;SDS011;27984;51.476;5.702;2023-06-14T05:18:06;9.82;;;4.82;;
42332;SDS011;27984;51.476;5.702;2023-06-14T05:20:34;7.32;;;4.40;;
42332;SDS011;27984;51.476;5.702;2023-06-14T05:23:02;9.43;;;4.45;;
42332;SDS011;27984;51.476;5.702;2023-06-14T05:25:28;7.38;;;4.88;;
42332;SDS011;27984;51.476;5.702;2023-06-14T05:27:54;9.93;;;4.72;;
42332;SDS011;27984;51.476;5.702;2023-06-14T05:30:20;10.13;;;3.90;;
42332;SDS011;27984;51.476;5.702;2023-06-14T05:32:46;6.18;;;4.28;;
42332;SDS011;27984;51.476;5.702;2023-06-14T05:35:12;7.53;;;4.50;;
42332;SDS011;27984;51.476;5.702;2023-06-14T05:37:38;7.70;;;3.95;;
42332;SDS011;27984;51.476;5.702;2023-06-14T05:40:04;7.55;;;4.25;;
42332;SDS011;27984;51.476;5.702;2023-06-14T05:42:31;7.32;;;4.25;;
42332;SDS011;27984;51.476;5.702;2023-06-14T05:44:57;8.82;;;3.83;;
42332;SDS011;27984;51.476;5.702;2023-06-14T05:47:23;6.40;;;4.38;;
42332;SDS011;27984;51.476;5.702;2023-06-14T05:49:48;12.32;;;4.32;;
42332;SDS011;27984;51.476;5.702;2023-06-14T05:52:14;11.35;;;4.60;;
42332;SDS011;27984;51.476;5.702;2023-06-14T05:54:40;12.98;;;4.22;;
42332;SDS011;27984;51.476;5.702;2023-06-14T05:57:06;7.55;;;4.30;;
42332;SDS011;27984;51.476;5.702;2023-06-14T05:59:32;7.00;;;4.00;;
42332;SDS011;27984;51.476;5.702;2023-06-14T06:01:58;8.52;;;3.70;;
42332;SDS011;27984;51.476;5.702;2023-06-14T06:04:24;8.93;;;4.32;;
42332;SDS011;27984;51.476;5.702;2023-06-14T06:06:50;10.25;;;4.38;;
42332;SDS011;27984;51.476;5.702;2023-06-14T06:09:16;5.72;;;4.18;;
42332;SDS011;27984;51.476;5.702;2023-06-14T06:11:42;6.07;;;3.88;;
42332;SDS011;27984;51.476;5.702;2023-06-14T06:14:08;9.15;;;3.67;;
42332;SDS011;27984;51.476;5.702;2023-06-14T06:16:34;7.22;;;3.97;;
42332;SDS011;27984;51.476;5.702;2023-06-14T06:19:00;8.55;;;3.88;;
42332;SDS011;27984;51.476;5.702;2023-06-14T06:21:26;8.20;;;3.63;;
42332;SDS011;27984;51.476;5.702;2023-06-14T06:23:52;9.38;;;3.95;;
42332;SDS011;27984;51.476;5.702;2023-06-14T06:26:19;8.10;;;3.92;;
42332;SDS011;27984;51.476;5.702;2023-06-14T06:28:45;6.55;;;3.50;;
42332;SDS011;27984;51.476;5.702;2023-06-14T06:31:11;10.43;;;3.70;;
42332;SDS011;27984;51.476;5.702;2023-06-14T06:33:37;8.35;;;3.42;;
42332;SDS011;27984;51.476;5.702;2023-06-14T06:36:04;5.45;;;3.67;;
42332;SDS011;27984;51.476;5.702;2023-06-14T06:38:30;6.72;;;3.60;;
42332;SDS011;27984;51.476;5.702;2023-06-14T06:40:56;7.82;;;3.50;;
42332;SDS011;27984;51.476;5.702;2023-06-14T06:43:22;10.05;;;3.67;;
42332;SDS011;27984;51.476;5.702;2023-06-14T06:45:48;5.00;;;3.72;;
42332;SDS011;27984;51.476;5.702;2023-06-14T06:48:14;7.13;;;3.50;;
42332;SDS011;27984;51.476;5.702;2023-06-14T06:50:40;7.85;;;3.75;;
42332;SDS011;27984;51.476;5.702;2023-06-14T06:53:06;5.72;;;3.50;;
42332;SDS011;27984;51.476;5.702;2023-06-14T06:55:32;7.53;;;3.70;;
42332;SDS011;27984;51.476;5.702;2023-06-14T06:57:58;14.82;;;3.55;;
42332;SDS011;27984;51.476;5.702;2023-06-14T07:00:25;9.57;;;3.33;;
42332;SDS011;27984;51.476;5.702;2023-06-14T07:02:51;6.82;;;3.53;;
42332;SDS011;27984;51.476;5.702;2023-06-14T07:05:19;6.65;;;3.60;;
42332;SDS011;27984;51.476;5.702;2023-06-14T07:07:45;9.18;;;3.47;;
42332;SDS011;27984;51.476;5.702;2023-06-14T07:10:12;14.55;;;3.55;;
42332;SDS011;27984;51.476;5.702;2023-06-14T07:12:38;8.05;;;3.70;;
42332;SDS011;27984;51.476;5.702;2023-06-14T07:15:05;6.07;;;3.40;;
42332;SDS011;27984;51.476;5.702;2023-06-14T07:17:32;11.70;;;4.07;;
42332;SDS011;27984;51.476;5.702;2023-06-14T07:19:59;9.68;;;3.53;;
42332;SDS011;27984;51.476;5.702;2023-06-14T07:22:25;11.63;;;3.72;;
42332;SDS011;27984;51.476;5.702;2023-06-14T07:24:51;11.48;;;3.80;;
42332;SDS011;27984;51.476;5.702;2023-06-14T07:27:17;5.07;;;3.38;;
42332;SDS011;27984;51.476;5.702;2023-06-14T07:29:43;10.88;;;3.30;;
42332;SDS011;27984;51.476;5.702;2023-06-14T07:32:09;6.47;;;3.13;;
42332;SDS011;27984;51.476;5.702;2023-06-14T07:34:35;14.77;;;3.92;;
42332;SDS011;27984;51.476;5.702;2023-06-14T07:37:01;5.07;;;2.83;;
42332;SDS011;27984;51.476;5.702;2023-06-14T07:39:27;9.57;;;3.30;;
42332;SDS011;27984;51.476;5.702;2023-06-14T07:41:53;10.95;;;3.30;;
42332;SDS011;27984;51.476;5.702;2023-06-14T07:44:19;5.32;;;2.90;;
42332;SDS011;27984;51.476;5.702;2023-06-14T07:46:45;11.52;;;3.10;;
42332;SDS011;27984;51.476;5.702;2023-06-14T07:49:14;4.18;;;2.80;;
42332;SDS011;27984;51.476;5.702;2023-06-14T07:51:40;7.57;;;3.00;;
42332;SDS011;27984;51.476;5.702;2023-06-14T07:54:06;5.88;;;2.92;;
42332;SDS011;27984;51.476;5.702;2023-06-14T07:56:33;7.95;;;2.90;;
42332;SDS011;27984;51.476;5.702;2023-06-14T07:59:00;7.00;;;2.58;;
42332;SDS011;27984;51.476;5.702;2023-06-14T08:01:26;5.47;;;2.20;;
42332;SDS011;27984;51.476;5.702;2023-06-14T08:03:53;5.30;;;2.35;;
42332;SDS011;27984;51.476;5.702;2023-06-14T08:06:19;8.88;;;2.53;;
42332;SDS011;27984;51.476;5.702;2023-06-14T08:08:45;3.75;;;2.20;;
42332;SDS011;27984;51.476;5.702;2023-06-14T08:11:11;4.90;;;2.13;;
42332;SDS011;27984;51.476;5.702;2023-06-14T08:13:37;9.50;;;2.08;;
42332;SDS011;27984;51.476;5.702;2023-06-14T08:16:03;7.75;;;2.38;;
42332;SDS011;27984;51.476;5.702;2023-06-14T08:18:30;6.63;;;2.35;;
42332;SDS011;27984;51.476;5.702;2023-06-14T08:20:56;4.20;;;2.10;;
42332;SDS011;27984;51.476;5.702;2023-06-14T08:23:23;3.20;;;1.98;;
42332;SDS011;27984;51.476;5.702;2023-06-14T08:25:49;3.92;;;1.98;;
42332;SDS011;27984;51.476;5.702;2023-06-14T08:28:16;5.53;;;2.20;;
42332;SDS011;27984;51.476;5.702;2023-06-14T08:30:42;2.38;;;1.70;;
42332;SDS011;27984;51.476;5.702;2023-06-14T08:33:08;6.85;;;2.40;;
42332;SDS011;27984;51.476;5.702;2023-06-14T08:35:34;3.45;;;2.08;;
42332;SDS011;27984;51.476;5.702;2023-06-14T08:38:04;6.45;;;1.90;;
42332;SDS011;27984;51.476;5.702;2023-06-14T08:40:30;3.95;;;1.83;;
42332;SDS011;27984;51.476;5.702;2023-06-14T08:42:56;6.10;;;1.77;;
42332;SDS011;27984;51.476;5.702;2023-06-14T08:45:23;4.38;;;1.80;;
42332;SDS011;27984;51.476;5.702;2023-06-14T08:47:50;8.15;;;2.13;;
42332;SDS011;27984;51.476;5.702;2023-06-14T08:50:23;4.43;;;1.70;;
42332;SDS011;27984;51.476;5.702;2023-06-14T08:52:51;4.03;;;1.55;;
42332;SDS011;27984;51.476;5.702;2023-06-14T08:55:19;4.78;;;1.42;;
42332;SDS011;27984;51.476;5.702;2023-06-14T08:57:46;3.70;;;1.33;;
42332;SDS011;27984;51.476;5.702;2023-06-14T09:00:14;3.58;;;1.33;;
42332;SDS011;27984;51.476;5.702;2023-06-14T09:02:40;3.30;;;1.58;;
42332;SDS011;27984;51.476;5.702;2023-06-14T09:05:08;5.22;;;1.30;;
42332;SDS011;27984;51.476;5.702;2023-06-14T09:07:35;6.72;;;1.27;;
42332;SDS011;27984;51.476;5.702;2023-06-14T09:10:11;1.95;;;1.08;;
42332;SDS011;27984;51.476;5.702;2023-06-14T09:12:37;1.23;;;1.10;;
42332;SDS011;27984;51.476;5.702;2023-06-14T09:15:04;2.65;;;1.20;;
42332;SDS011;27984;51.476;5.702;2023-06-14T09:17:37;1.13;;;0.98;;
42332;SDS011;27984;51.476;5.702;2023-06-14T09:20:04;1.88;;;0.95;;
42332;SDS011;27984;51.476;5.702;2023-06-14T09:22:43;1.15;;;0.88;;
42332;SDS011;27984;51.476;5.702;2023-06-14T09:25:09;3.30;;;1.10;;
42332;SDS011;27984;51.476;5.702;2023-06-14T09:27:37;3.22;;;1.17;;
42332;SDS011;27984;51.476;5.702;2023-06-14T09:30:05;2.13;;;1.23;;
42332;SDS011;27984;51.476;5.702;2023-06-14T09:32:36;3.47;;;1.10;;
42332;SDS011;27984;51.476;5.702;2023-06-14T09:35:03;5.65;;;1.20;;
42332;SDS011;27984;51.476;5.702;2023-06-14T09:37:29;1.17;;;1.08;;
42332;SDS011;27984;51.476;5.702;2023-06-14T09:39:56;1.95;;;1.05;;
42332;SDS011;27984;51.476;5.702;2023-06-14T09:42:22;4.13;;;1.17;;
42332;SDS011;27984;51.476;5.702;2023-06-14T09:44:50;1.80;;;1.30;;
42332;SDS011;27984;51.476;5.702;2023-06-14T09:47:17;7.70;;;1.40;;
42332;SDS011;27984;51.476;5.702;2023-06-14T09:49:43;2.38;;;1.30;;
42332;SDS011;27984;51.476;5.702;2023-06-14T09:52:17;1.92;;;1.30;;
42332;SDS011;27984;51.476;5.702;2023-06-14T09:54:44;2.20;;;1.27;;
42332;SDS011;27984;51.476;5.702;2023-06-14T09:57:14;3.00;;;1.20;;
42332;SDS011;27984;51.476;5.702;2023-06-14T09:59:44;3.35;;;1.30;;
42332;SDS011;27984;51.476;5.702;2023-06-14T10:02:29;3.40;;;1.40;;
42332;SDS011;27984;51.476;5.702;2023-06-14T10:05:08;3.83;;;1.17;;
42332;SDS011;27984;51.476;5.702;2023-06-14T10:07:48;3.33;;;1.30;;
42332;SDS011;27984;51.476;5.702;2023-06-14T10:10:18;1.35;;;1.20;;
42332;SDS011;27984;51.476;5.702;2023-06-14T10:12:44;2.15;;;1.10;;
42332;SDS011;27984;51.476;5.702;2023-06-14T10:15:10;1.10;;;1.00;;
42332;SDS011;27984;51.476;5.702;2023-06-14T10:17:46;2.75;;;1.20;;
42332;SDS011;27984;51.476;5.702;2023-06-14T10:22:44;3.45;;;1.00;;
42332;SDS011;27984;51.476;5.702;2023-06-14T10:25:13;2.83;;;1.40;;
42332;SDS011;27984;51.476;5.702;2023-06-14T10:27:39;2.45;;;1.30;;
42332;SDS011;27984;51.476;5.702;2023-06-14T10:30:09;1.15;;;1.00;;
42332;SDS011;27984;51.476;5.702;2023-06-14T10:32:35;2.58;;;1.10;;
42332;SDS011;27984;51.476;5.702;2023-06-14T10:35:05;2.60;;;1.40;;
42332;SDS011;27984;51.476;5.702;2023-06-14T10:37:34;1.98;;;1.15;;
42332;SDS011;27984;51.476;5.702;2023-06-14T10:40:00;1.85;;;1.42;;
42332;SDS011;27984;51.476;5.702;2023-06-14T10:42:33;5.32;;;1.40;;
42332;SDS011;27984;51.476;5.702;2023-06-14T10:45:00;1.70;;;1.40;;
42332;SDS011;27984;51.476;5.702;2023-06-14T10:47:27;3.58;;;1.20;;
42332;SDS011;27984;51.476;5.702;2023-06-14T10:49:54;3.78;;;1.30;;
42332;SDS011;27984;51.476;5.702;2023-06-14T10:52:21;2.35;;;1.40;;
42332;SDS011;27984;51.476;5.702;2023-06-14T10:57:44;4.25;;;1.50;;
42332;SDS011;27984;51.476;5.702;2023-06-14T11:00:16;2.83;;;1.00;;
42332;SDS011;27984;51.476;5.702;2023-06-14T11:05:10;3.38;;;1.20;;
42332;SDS011;27984;51.476;5.702;2023-06-14T11:12:45;2.35;;;1.33;;
42332;SDS011;27984;51.476;5.702;2023-06-14T11:15:13;4.60;;;1.20;;
42332;SDS011;27984;51.476;5.702;2023-06-14T11:17:39;1.50;;;1.20;;
42332;SDS011;27984;51.476;5.702;2023-06-14T11:20:11;4.55;;;1.17;;
42332;SDS011;27984;51.476;5.702;2023-06-14T11:22:43;2.17;;;1.30;;
42332;SDS011;27984;51.476;5.702;2023-06-14T11:25:10;3.42;;;1.13;;
42332;SDS011;27984;51.476;5.702;2023-06-14T11:27:36;1.80;;;1.08;;
42332;SDS011;27984;51.476;5.702;2023-06-14T11:30:03;1.23;;;1.00;;
42332;SDS011;27984;51.476;5.702;2023-06-14T11:32:30;2.25;;;1.20;;
42332;SDS011;27984;51.476;5.702;2023-06-14T11:34:57;3.47;;;1.10;;
42332;SDS011;27984;51.476;5.702;2023-06-14T11:37:24;1.30;;;1.00;;
42332;SDS011;27984;51.476;5.702;2023-06-14T11:39:51;3.97;;;1.25;;
42332;SDS011;27984;51.476;5.702;2023-06-14T11:42:17;1.25;;;1.02;;
42332;SDS011;27984;51.476;5.702;2023-06-14T11:44:46;3.33;;;1.08;;
42332;SDS011;27984;51.476;5.702;2023-06-14T11:47:12;3.45;;;1.10;;
42332;SDS011;27984;51.476;5.702;2023-06-14T11:49:38;2.25;;;1.00;;
42332;SDS011;27984;51.476;5.702;2023-06-14T11:52:04;3.30;;;1.20;;
42332;SDS011;27984;51.476;5.702;2023-06-14T11:54:31;2.25;;;1.15;;
42332;SDS011;27984;51.476;5.702;2023-06-14T11:56:58;2.38;;;0.93;;
42332;SDS011;27984;51.476;5.702;2023-06-14T11:59:24;3.47;;;0.88;;
42332;SDS011;27984;51.476;5.702;2023-06-14T12:01:52;3.40;;;1.00;;
42332;SDS011;27984;51.476;5.702;2023-06-14T12:04:31;1.40;;;1.08;;
42332;SDS011;27984;51.476;5.702;2023-06-14T12:06:57;0.98;;;0.95;;
42332;SDS011;27984;51.476;5.702;2023-06-14T12:09:23;1.65;;;0.98;;
42332;SDS011;27984;51.476;5.702;2023-06-14T12:11:51;2.00;;;1.13;;
42332;SDS011;27984;51.476;5.702;2023-06-14T12:14:30;3.58;;;1.20;;
42332;SDS011;27984;51.476;5.702;2023-06-14T12:17:05;4.10;;;1.00;;
42332;SDS011;27984;51.476;5.702;2023-06-14T12:19:32;2.10;;;1.25;;
42332;SDS011;27984;51.476;5.702;2023-06-14T12:22:01;2.15;;;1.00;;
42332;SDS011;27984;51.476;5.702;2023-06-14T12:24:29;1.48;;;1.08;;
42332;SDS011;27984;51.476;5.702;2023-06-14T12:26:59;2.75;;;1.38;;
42332;SDS011;27984;51.476;5.702;2023-06-14T12:29:25;5.07;;;1.13;;
42332;SDS011;27984;51.476;5.702;2023-06-14T12:31:51;1.67;;;1.10;;
42332;SDS011;27984;51.476;5.702;2023-06-14T12:34:19;2.78;;;1.10;;
42332;SDS011;27984;51.476;5.702;2023-06-14T12:36:45;2.38;;;1.10;;
42332;SDS011;27984;51.476;5.702;2023-06-14T12:39:11;2.97;;;1.10;;
42332;SDS011;27984;51.476;5.702;2023-06-14T12:41:37;2.13;;;1.10;;
42332;SDS011;27984;51.476;5.702;2023-06-14T12:44:06;3.60;;;1.17;;
42332;SDS011;27984;51.476;5.702;2023-06-14T12:46:32;2.95;;;1.02;;
42332;SDS011;27984;51.476;5.702;2023-06-14T12:48:59;1.90;;;0.95;;
42332;SDS011;27984;51.476;5.702;2023-06-14T12:51:25;4.55;;;1.10;;
42332;SDS011;27984;51.476;5.702;2023-06-14T12:53:51;1.45;;;1.00;;
42332;SDS011;27984;51.476;5.702;2023-06-14T12:56:17;1.67;;;0.82;;
42332;SDS011;27984;51.476;5.702;2023-06-14T12:58:43;2.15;;;0.85;;
42332;SDS011;27984;51.476;5.702;2023-06-14T13:01:09;1.00;;;0.90;;
42332;SDS011;27984;51.476;5.702;2023-06-14T13:03:35;2.65;;;1.00;;
42332;SDS011;27984;51.476;5.702;2023-06-14T13:06:01;3.45;;;1.10;;
42332;SDS011;27984;51.476;5.702;2023-06-14T13:08:29;4.15;;;1.17;;
42332;SDS011;27984;51.476;5.702;2023-06-14T13:10:55;3.08;;;1.10;;
42332;SDS011;27984;51.476;5.702;2023-06-14T13:13:21;3.17;;;0.95;;
42332;SDS011;27984;51.476;5.702;2023-06-14T13:15:47;3.28;;;1.00;;
42332;SDS011;27984;51.476;5.702;2023-06-14T13:18:14;1.17;;;0.90;;
42332;SDS011;27984;51.476;5.702;2023-06-14T13:20:40;3.20;;;1.00;;
42332;SDS011;27984;51.476;5.702;2023-06-14T13:23:06;2.08;;;1.00;;
42332;SDS011;27984;51.476;5.702;2023-06-14T13:25:33;1.95;;;0.90;;
42332;SDS011;27984;51.476;5.702;2023-06-14T13:27:59;3.58;;;0.93;;
42332;SDS011;27984;51.476;5.702;2023-06-14T13:30:25;4.55;;;0.80;;
42332;SDS011;27984;51.476;5.702;2023-06-14T13:32:51;3.33;;;1.25;;
42332;SDS011;27984;51.476;5.702;2023-06-14T13:35:18;4.72;;;0.82;;
42332;SDS011;27984;51.476;5.702;2023-06-14T13:37:44;1.83;;;0.68;;
42332;SDS011;27984;51.476;5.702;2023-06-14T13:40:10;4.03;;;0.80;;
42332;SDS011;27984;51.476;5.702;2023-06-14T13:42:36;4.03;;;0.70;;
42332;SDS011;27984;51.476;5.702;2023-06-14T13:45:03;3.60;;;0.70;;
42332;SDS011;27984;51.476;5.702;2023-06-14T13:47:29;3.83;;;0.80;;
42332;SDS011;27984;51.476;5.702;2023-06-14T13:49:56;1.50;;;0.63;;
42332;SDS011;27984;51.476;5.702;2023-06-14T13:52:22;2.70;;;0.73;;
42332;SDS011;27984;51.476;5.702;2023-06-14T13:57:30;3.22;;;0.68;;
42332;SDS011;27984;51.476;5.702;2023-06-14T13:59:58;7.43;;;0.82;;
42332;SDS011;27984;51.476;5.702;2023-06-14T14:02:26;2.90;;;0.70;;
42332;SDS011;27984;51.476;5.702;2023-06-14T14:04:54;2.08;;;0.70;;
42332;SDS011;27984;51.476;5.702;2023-06-14T14:07:21;1.65;;;0.85;;
42332;SDS011;27984;51.476;5.702;2023-06-14T14:09:47;2.08;;;0.80;;
42332;SDS011;27984;51.476;5.702;2023-06-14T14:12:13;2.25;;;0.60;;
42332;SDS011;27984;51.476;5.702;2023-06-14T14:14:39;4.88;;;0.60;;
42332;SDS011;27984;51.476;5.702;2023-06-14T14:17:06;2.92;;;0.70;;
42332;SDS011;27984;51.476;5.702;2023-06-14T14:19:32;2.53;;;0.68;;
42332;SDS011;27984;51.476;5.702;2023-06-14T14:21:58;4.75;;;0.82;;
42332;SDS011;27984;51.476;5.702;2023-06-14T14:24:24;5.55;;;0.98;;
42332;SDS011;27984;51.476;5.702;2023-06-14T14:26:50;1.58;;;0.80;;
42332;SDS011;27984;51.476;5.702;2023-06-14T14:29:18;3.10;;;0.90;;
42332;SDS011;27984;51.476;5.702;2023-06-14T14:31:44;2.45;;;0.80;;
42332;SDS011;27984;51.476;5.702;2023-06-14T14:34:10;2.70;;;0.90;;
42332;SDS011;27984;51.476;5.702;2023-06-14T14:36:36;8.00;;;0.70;;
42332;SDS011;27984;51.476;5.702;2023-06-14T14:39:03;0.90;;;0.77;;
42332;SDS011;27984;51.476;5.702;2023-06-14T14:41:29;2.45;;;0.88;;
42332;SDS011;27984;51.476;5.702;2023-06-14T14:43:55;1.45;;;0.70;;
42332;SDS011;27984;51.476;5.702;2023-06-14T14:46:22;3.10;;;0.75;;
42332;SDS011;27984;51.476;5.702;2023-06-14T14:48:48;4.45;;;0.80;;
42332;SDS011;27984;51.476;5.702;2023-06-14T14:51:14;3.65;;;0.85;;
42332;SDS011;27984;51.476;5.702;2023-06-14T14:53:40;10.43;;;1.25;;
42332;SDS011;27984;51.476;5.702;2023-06-14T14:56:06;2.53;;;0.90;;
42332;SDS011;27984;51.476;5.702;2023-06-14T14:58:32;3.40;;;0.88;;
42332;SDS011;27984;51.476;5.702;2023-06-14T15:00:58;2.75;;;0.85;;
42332;SDS011;27984;51.476;5.702;2023-06-14T15:03:24;4.53;;;0.80;;
42332;SDS011;27984;51.476;5.702;2023-06-14T15:05:50;5.97;;;0.90;;
42332;SDS011;27984;51.476;5.702;2023-06-14T15:08:16;1.77;;;0.82;;
42332;SDS011;27984;51.476;5.702;2023-06-14T15:10:42;5.00;;;0.95;;
42332;SDS011;27984;51.476;5.702;2023-06-14T15:13:08;3.08;;;0.90;;
42332;SDS011;27984;51.476;5.702;2023-06-14T15:15:35;4.63;;;0.90;;
42332;SDS011;27984;51.476;5.702;2023-06-14T15:18:01;5.93;;;1.10;;
42332;SDS011;27984;51.476;5.702;2023-06-14T15:20:27;2.72;;;0.80;;
42332;SDS011;27984;51.476;5.702;2023-06-14T15:22:53;3.15;;;0.88;;
42332;SDS011;27984;51.476;5.702;2023-06-14T15:25:29;2.28;;;0.88;;
42332;SDS011;27984;51.476;5.702;2023-06-14T15:27:55;4.13;;;1.20;;
42332;SDS011;27984;51.476;5.702;2023-06-14T15:30:21;5.40;;;1.20;;
42332;SDS011;27984;51.476;5.702;2023-06-14T15:32:48;1.60;;;1.00;;
42332;SDS011;27984;51.476;5.702;2023-06-14T15:35:15;2.42;;;0.90;;